sensor_id;sensor_type;location;lat;lon;timestamp;P1;durP1;ratioP1;P2;durP2;ratioP2
12151;SDS011;6139;51.274;7.128;2024-01-06T00:00:17;16.47;;;12.83;;
12151;SDS011;6139;51.274;7.128;2024-01-06T00:01:18;15.33;;;12.33;;
12151;SDS011;6139;51.274;7.128;2024-01-06T00:02:21;14.17;;;12.33;;
12151;SDS011;6139;51.274;7.128;2024-01-06T00:03:22;15.20;;;12.47;;
12151;SDS011;6139;51.274;7.128;2024-01-06T00:04:24;13.77;;;12.33;;
12151;SDS011;6139;51.274;7.128;2024-01-06T00:05:25;15.27;;;11.87;;
12151;SDS011;6139;51.274;7.128;2024-01-06T00:06:27;13.20;;;11.57;;
12151;SDS011;6139;51.274;7.128;2024-01-06T00:07:28;13.73;;;11.30;;
12151;SDS011;6139;51.274;7.128;2024-01-06T00:08:30;13.60;;;12.03;;
12151;SDS011;6139;51.274;7.128;2024-01-06T00:09:31;15.13;;;12.43;;
12151;SDS011;6139;51.274;7.128;2024-01-06T00:10:33;12.43;;;11.00;;
12151;SDS011;6139;51.274;7.128;2024-01-06T00:11:33;13.33;;;11.10;;
12151;SDS011;6139;51.274;7.128;2024-01-06T00:12:35;13.87;;;11.93;;
12151;SDS011;6139;51.274;7.128;2024-01-06T00:13:36;15.17;;;11.70;;
12151;SDS011;6139;51.274;7.128;2024-01-06T00:14:38;15.63;;;11.13;;
12151;SDS011;6139;51.274;7.128;2024-01-06T00:15:42;14.80;;;11.17;;
12151;SDS011;6139;51.274;7.128;2024-01-06T00:16:44;13.90;;;11.07;;
12151;SDS011;6139;51.274;7.128;2024-01-06T00:17:46;14.00;;;11.25;;
12151;SDS011;6139;51.274;7.128;2024-01-06T00:18:48;13.00;;;11.10;;
12151;SDS011;6139;51.274;7.128;2024-01-06T00:19:49;14.53;;;11.40;;
12151;SDS011;6139;51.274;7.128;2024-01-06T00:20:51;13.23;;;11.83;;
12151;SDS011;6139;51.274;7.128;2024-01-06T00:21:53;15.93;;;11.77;;
12151;SDS011;6139;51.274;7.128;2024-01-06T00:22:54;14.93;;;11.80;;
12151;SDS011;6139;51.274;7.128;2024-01-06T00:23:56;14.83;;;12.23;;
12151;SDS011;6139;51.274;7.128;2024-01-06T00:24:57;13.53;;;12.03;;
12151;SDS011;6139;51.274;7.128;2024-01-06T00:26:00;13.33;;;11.30;;
12151;SDS011;6139;51.274;7.128;2024-01-06T00:27:00;16.67;;;13.32;;
12151;SDS011;6139;51.274;7.128;2024-01-06T00:28:03;14.80;;;12.43;;
12151;SDS011;6139;51.274;7.128;2024-01-06T00:29:04;14.97;;;12.40;;
12151;SDS011;6139;51.274;7.128;2024-01-06T00:30:06;15.17;;;12.83;;
12151;SDS011;6139;51.274;7.128;2024-01-06T00:31:08;16.43;;;12.50;;
12151;SDS011;6139;51.274;7.128;2024-01-06T00:32:10;15.77;;;12.70;;
12151;SDS011;6139;51.274;7.128;2024-01-06T00:33:13;15.00;;;12.48;;
12151;SDS011;6139;51.274;7.128;2024-01-06T00:34:15;15.10;;;12.65;;
12151;SDS011;6139;51.274;7.128;2024-01-06T00:35:16;13.95;;;12.48;;
12151;SDS011;6139;51.274;7.128;2024-01-06T00:36:18;14.77;;;11.97;;
12151;SDS011;6139;51.274;7.128;2024-01-06T00:37:19;15.83;;;12.53;;
12151;SDS011;6139;51.274;7.128;2024-01-06T00:38:20;14.30;;;11.80;;
12151;SDS011;6139;51.274;7.128;2024-01-06T00:39:21;12.97;;;11.57;;
12151;SDS011;6139;51.274;7.128;2024-01-06T00:40:23;13.77;;;11.53;;
12151;SDS011;6139;51.274;7.128;2024-01-06T00:41:24;13.73;;;12.20;;
12151;SDS011;6139;51.274;7.128;2024-01-06T00:42:26;14.10;;;11.98;;
12151;SDS011;6139;51.274;7.128;2024-01-06T00:43:27;13.13;;;11.33;;
12151;SDS011;6139;51.274;7.128;2024-01-06T00:44:29;15.07;;;11.73;;
12151;SDS011;6139;51.274;7.128;2024-01-06T00:45:30;14.77;;;12.03;;
12151;SDS011;6139;51.274;7.128;2024-01-06T00:46:32;15.33;;;11.70;;
12151;SDS011;6139;51.274;7.128;2024-01-06T00:47:33;14.37;;;11.37;;
12151;SDS011;6139;51.274;7.128;2024-01-06T00:48:36;14.20;;;11.82;;
12151;SDS011;6139;51.274;7.128;2024-01-06T00:49:37;13.40;;;11.43;;
12151;SDS011;6139;51.274;7.128;2024-01-06T00:50:39;13.70;;;11.50;;
12151;SDS011;6139;51.274;7.128;2024-01-06T00:51:40;11.70;;;10.43;;
12151;SDS011;6139;51.274;7.128;2024-01-06T00:52:41;12.10;;;10.17;;
12151;SDS011;6139;51.274;7.128;2024-01-06T00:53:43;12.98;;;10.15;;
12151;SDS011;6139;51.274;7.128;2024-01-06T00:54:44;12.37;;;11.07;;
12151;SDS011;6139;51.274;7.128;2024-01-06T00:55:46;12.93;;;11.18;;
12151;SDS011;6139;51.274;7.128;2024-01-06T00:56:47;13.98;;;10.40;;
12151;SDS011;6139;51.274;7.128;2024-01-06T00:57:49;12.70;;;10.73;;
12151;SDS011;6139;51.274;7.128;2024-01-06T00:58:50;11.15;;;9.98;;
12151;SDS011;6139;51.274;7.128;2024-01-06T00:59:52;11.70;;;10.32;;
12151;SDS011;6139;51.274;7.128;2024-01-06T01:00:53;12.48;;;10.55;;
12151;SDS011;6139;51.274;7.128;2024-01-06T01:01:55;11.60;;;9.68;;
12151;SDS011;6139;51.274;7.128;2024-01-06T01:02:56;11.23;;;10.00;;
12151;SDS011;6139;51.274;7.128;2024-01-06T01:03:59;12.37;;;10.90;;
12151;SDS011;6139;51.274;7.128;2024-01-06T01:05:00;13.73;;;10.17;;
12151;SDS011;6139;51.274;7.128;2024-01-06T01:06:03;12.65;;;10.90;;
12151;SDS011;6139;51.274;7.128;2024-01-06T01:07:04;12.90;;;11.10;;
12151;SDS011;6139;51.274;7.128;2024-01-06T01:08:05;11.90;;;10.70;;
12151;SDS011;6139;51.274;7.128;2024-01-06T01:09:07;12.40;;;11.07;;
12151;SDS011;6139;51.274;7.128;2024-01-06T01:10:10;13.33;;;11.33;;
12151;SDS011;6139;51.274;7.128;2024-01-06T01:11:12;14.10;;;10.63;;
12151;SDS011;6139;51.274;7.128;2024-01-06T01:12:13;11.83;;;10.23;;
12151;SDS011;6139;51.274;7.128;2024-01-06T01:13:15;12.32;;;10.68;;
12151;SDS011;6139;51.274;7.128;2024-01-06T01:14:16;12.20;;;10.90;;
12151;SDS011;6139;51.274;7.128;2024-01-06T01:15:19;13.43;;;11.10;;
12151;SDS011;6139;51.274;7.128;2024-01-06T01:16:20;12.30;;;10.87;;
12151;SDS011;6139;51.274;7.128;2024-01-06T01:17:21;13.83;;;10.87;;
12151;SDS011;6139;51.274;7.128;2024-01-06T01:18:22;13.67;;;11.37;;
12151;SDS011;6139;51.274;7.128;2024-01-06T01:19:26;12.33;;;11.03;;
12151;SDS011;6139;51.274;7.128;2024-01-06T01:20:27;14.30;;;11.13;;
12151;SDS011;6139;51.274;7.128;2024-01-06T01:21:29;14.23;;;12.37;;
12151;SDS011;6139;51.274;7.128;2024-01-06T01:22:29;12.57;;;10.87;;
12151;SDS011;6139;51.274;7.128;2024-01-06T01:23:31;12.40;;;10.70;;
12151;SDS011;6139;51.274;7.128;2024-01-06T01:24:32;13.27;;;11.63;;
12151;SDS011;6139;51.274;7.128;2024-01-06T01:25:33;14.60;;;11.93;;
12151;SDS011;6139;51.274;7.128;2024-01-06T01:26:35;13.83;;;11.67;;
12151;SDS011;6139;51.274;7.128;2024-01-06T01:27:36;14.57;;;11.63;;
12151;SDS011;6139;51.274;7.128;2024-01-06T01:28:38;12.60;;;11.13;;
12151;SDS011;6139;51.274;7.128;2024-01-06T01:29:39;13.53;;;11.83;;
12151;SDS011;6139;51.274;7.128;2024-01-06T01:30:41;14.80;;;12.07;;
12151;SDS011;6139;51.274;7.128;2024-01-06T01:31:42;14.13;;;12.13;;
12151;SDS011;6139;51.274;7.128;2024-01-06T01:32:44;15.30;;;11.67;;
12151;SDS011;6139;51.274;7.128;2024-01-06T01:33:45;15.90;;;13.03;;
12151;SDS011;6139;51.274;7.128;2024-01-06T01:34:48;14.63;;;12.30;;
12151;SDS011;6139;51.274;7.128;2024-01-06T01:35:49;15.83;;;12.40;;
12151;SDS011;6139;51.274;7.128;2024-01-06T01:36:51;14.47;;;12.20;;
12151;SDS011;6139;51.274;7.128;2024-01-06T01:37:52;16.40;;;12.23;;
12151;SDS011;6139;51.274;7.128;2024-01-06T01:38:54;17.57;;;13.30;;
12151;SDS011;6139;51.274;7.128;2024-01-06T01:39:55;17.00;;;13.43;;
12151;SDS011;6139;51.274;7.128;2024-01-06T01:40:56;15.53;;;12.60;;
12151;SDS011;6139;51.274;7.128;2024-01-06T01:41:59;15.40;;;12.37;;
12151;SDS011;6139;51.274;7.128;2024-01-06T01:43:00;16.23;;;13.00;;
12151;SDS011;6139;51.274;7.128;2024-01-06T01:44:02;15.90;;;12.93;;
12151;SDS011;6139;51.274;7.128;2024-01-06T01:45:04;15.10;;;13.47;;
12151;SDS011;6139;51.274;7.128;2024-01-06T01:46:06;16.63;;;13.00;;
12151;SDS011;6139;51.274;7.128;2024-01-06T01:47:07;16.20;;;13.37;;
12151;SDS011;6139;51.274;7.128;2024-01-06T01:48:08;16.30;;;13.50;;
12151;SDS011;6139;51.274;7.128;2024-01-06T01:49:10;14.97;;;12.33;;
12151;SDS011;6139;51.274;7.128;2024-01-06T01:50:12;16.57;;;13.07;;
12151;SDS011;6139;51.274;7.128;2024-01-06T01:51:15;14.30;;;12.50;;
12151;SDS011;6139;51.274;7.128;2024-01-06T01:52:17;18.40;;;13.13;;
12151;SDS011;6139;51.274;7.128;2024-01-06T01:53:19;16.00;;;12.47;;
12151;SDS011;6139;51.274;7.128;2024-01-06T01:54:20;15.57;;;12.60;;
12151;SDS011;6139;51.274;7.128;2024-01-06T01:55:22;16.53;;;13.70;;
12151;SDS011;6139;51.274;7.128;2024-01-06T01:56:24;16.63;;;13.10;;
12151;SDS011;6139;51.274;7.128;2024-01-06T01:57:27;19.30;;;14.17;;
12151;SDS011;6139;51.274;7.128;2024-01-06T01:58:28;15.67;;;12.60;;
12151;SDS011;6139;51.274;7.128;2024-01-06T01:59:30;15.83;;;13.40;;
12151;SDS011;6139;51.274;7.128;2024-01-06T02:00:31;20.60;;;14.00;;
12151;SDS011;6139;51.274;7.128;2024-01-06T02:01:33;18.50;;;13.03;;
12151;SDS011;6139;51.274;7.128;2024-01-06T02:02:34;16.53;;;13.73;;
12151;SDS011;6139;51.274;7.128;2024-01-06T02:03:36;15.37;;;12.53;;
12151;SDS011;6139;51.274;7.128;2024-01-06T02:04:38;15.93;;;13.50;;
12151;SDS011;6139;51.274;7.128;2024-01-06T02:05:41;16.43;;;12.83;;
12151;SDS011;6139;51.274;7.128;2024-01-06T02:06:42;15.82;;;13.15;;
12151;SDS011;6139;51.274;7.128;2024-01-06T02:07:44;14.73;;;12.57;;
12151;SDS011;6139;51.274;7.128;2024-01-06T02:08:45;15.13;;;12.80;;
12151;SDS011;6139;51.274;7.128;2024-01-06T02:09:47;15.53;;;12.93;;
12151;SDS011;6139;51.274;7.128;2024-01-06T02:10:48;17.03;;;12.90;;
12151;SDS011;6139;51.274;7.128;2024-01-06T02:11:50;16.50;;;12.97;;
12151;SDS011;6139;51.274;7.128;2024-01-06T02:12:51;16.80;;;12.90;;
12151;SDS011;6139;51.274;7.128;2024-01-06T02:13:53;16.10;;;12.97;;
12151;SDS011;6139;51.274;7.128;2024-01-06T02:14:54;16.80;;;13.23;;
12151;SDS011;6139;51.274;7.128;2024-01-06T02:15:56;16.70;;;13.63;;
12151;SDS011;6139;51.274;7.128;2024-01-06T02:16:57;17.10;;;13.23;;
12151;SDS011;6139;51.274;7.128;2024-01-06T02:17:59;15.33;;;12.50;;
12151;SDS011;6139;51.274;7.128;2024-01-06T02:18:59;17.57;;;13.40;;
12151;SDS011;6139;51.274;7.128;2024-01-06T02:20:02;15.80;;;13.13;;
12151;SDS011;6139;51.274;7.128;2024-01-06T02:21:05;17.17;;;13.47;;
12151;SDS011;6139;51.274;7.128;2024-01-06T02:22:08;15.57;;;12.97;;
12151;SDS011;6139;51.274;7.128;2024-01-06T02:23:10;15.60;;;13.20;;
12151;SDS011;6139;51.274;7.128;2024-01-06T02:24:11;18.63;;;13.43;;
12151;SDS011;6139;51.274;7.128;2024-01-06T02:25:13;17.13;;;13.27;;
12151;SDS011;6139;51.274;7.128;2024-01-06T02:26:14;17.17;;;14.07;;
12151;SDS011;6139;51.274;7.128;2024-01-06T02:27:17;17.97;;;14.20;;
12151;SDS011;6139;51.274;7.128;2024-01-06T02:28:18;17.60;;;14.40;;
12151;SDS011;6139;51.274;7.128;2024-01-06T02:29:20;17.43;;;14.07;;
12151;SDS011;6139;51.274;7.128;2024-01-06T02:30:21;20.27;;;14.90;;
12151;SDS011;6139;51.274;7.128;2024-01-06T02:31:23;19.73;;;15.43;;
12151;SDS011;6139;51.274;7.128;2024-01-06T02:32:23;19.20;;;14.27;;
12151;SDS011;6139;51.274;7.128;2024-01-06T02:33:25;20.27;;;15.43;;
12151;SDS011;6139;51.274;7.128;2024-01-06T02:34:26;21.05;;;15.80;;
12151;SDS011;6139;51.274;7.128;2024-01-06T02:35:28;18.90;;;15.40;;
12151;SDS011;6139;51.274;7.128;2024-01-06T02:36:29;20.02;;;15.82;;
12151;SDS011;6139;51.274;7.128;2024-01-06T02:37:32;19.37;;;14.77;;
12151;SDS011;6139;51.274;7.128;2024-01-06T02:38:33;18.30;;;14.57;;
12151;SDS011;6139;51.274;7.128;2024-01-06T02:39:35;16.13;;;13.47;;
12151;SDS011;6139;51.274;7.128;2024-01-06T02:40:36;15.90;;;12.60;;
12151;SDS011;6139;51.274;7.128;2024-01-06T02:41:37;12.85;;;10.57;;
12151;SDS011;6139;51.274;7.128;2024-01-06T02:42:39;12.77;;;9.80;;
12151;SDS011;6139;51.274;7.128;2024-01-06T02:43:41;9.87;;;8.87;;
12151;SDS011;6139;51.274;7.128;2024-01-06T02:44:43;9.80;;;7.63;;
12151;SDS011;6139;51.274;7.128;2024-01-06T02:45:43;6.53;;;4.80;;
12151;SDS011;6139;51.274;7.128;2024-01-06T02:46:46;5.47;;;4.80;;
12151;SDS011;6139;51.274;7.128;2024-01-06T02:47:47;6.37;;;5.10;;
12151;SDS011;6139;51.274;7.128;2024-01-06T02:48:49;5.50;;;4.73;;
12151;SDS011;6139;51.274;7.128;2024-01-06T02:49:50;4.93;;;4.43;;
12151;SDS011;6139;51.274;7.128;2024-01-06T02:50:52;7.20;;;5.67;;
12151;SDS011;6139;51.274;7.128;2024-01-06T02:51:53;6.87;;;5.90;;
12151;SDS011;6139;51.274;7.128;2024-01-06T02:52:56;7.13;;;5.77;;
12151;SDS011;6139;51.274;7.128;2024-01-06T02:53:57;7.40;;;6.65;;
12151;SDS011;6139;51.274;7.128;2024-01-06T02:55:00;8.00;;;7.20;;
12151;SDS011;6139;51.274;7.128;2024-01-06T02:56:01;7.50;;;5.97;;
12151;SDS011;6139;51.274;7.128;2024-01-06T02:57:03;7.70;;;6.87;;
12151;SDS011;6139;51.274;7.128;2024-01-06T02:58:04;7.20;;;6.40;;
12151;SDS011;6139;51.274;7.128;2024-01-06T02:59:06;8.93;;;7.93;;
12151;SDS011;6139;51.274;7.128;2024-01-06T03:00:07;7.70;;;6.90;;
12151;SDS011;6139;51.274;7.128;2024-01-06T03:01:11;8.05;;;7.15;;
12151;SDS011;6139;51.274;7.128;2024-01-06T03:02:12;10.10;;;8.57;;
12151;SDS011;6139;51.274;7.128;2024-01-06T03:03:14;11.23;;;8.73;;
12151;SDS011;6139;51.274;7.128;2024-01-06T03:04:15;10.47;;;8.93;;
12151;SDS011;6139;51.274;7.128;2024-01-06T03:05:17;11.83;;;9.03;;
12151;SDS011;6139;51.274;7.128;2024-01-06T03:06:18;11.35;;;8.90;;
12151;SDS011;6139;51.274;7.128;2024-01-06T03:07:20;12.13;;;10.17;;
12151;SDS011;6139;51.274;7.128;2024-01-06T03:08:22;12.13;;;9.77;;
12151;SDS011;6139;51.274;7.128;2024-01-06T03:09:23;13.60;;;10.80;;
12151;SDS011;6139;51.274;7.128;2024-01-06T03:10:25;12.83;;;10.20;;
12151;SDS011;6139;51.274;7.128;2024-01-06T03:11:26;13.03;;;10.43;;
12151;SDS011;6139;51.274;7.128;2024-01-06T03:12:28;12.80;;;10.47;;
12151;SDS011;6139;51.274;7.128;2024-01-06T03:13:29;13.45;;;10.88;;
12151;SDS011;6139;51.274;7.128;2024-01-06T03:14:30;12.43;;;9.90;;
12151;SDS011;6139;51.274;7.128;2024-01-06T03:15:32;12.00;;;9.70;;
12151;SDS011;6139;51.274;7.128;2024-01-06T03:16:33;11.47;;;10.20;;
12151;SDS011;6139;51.274;7.128;2024-01-06T03:17:35;11.10;;;8.57;;
12151;SDS011;6139;51.274;7.128;2024-01-06T03:18:36;10.40;;;7.93;;
12151;SDS011;6139;51.274;7.128;2024-01-06T03:19:38;9.80;;;8.23;;
12151;SDS011;6139;51.274;7.128;2024-01-06T03:20:39;9.55;;;7.93;;
12151;SDS011;6139;51.274;7.128;2024-01-06T03:21:41;10.65;;;8.57;;
12151;SDS011;6139;51.274;7.128;2024-01-06T03:22:42;12.23;;;8.68;;
12151;SDS011;6139;51.274;7.128;2024-01-06T03:23:45;10.53;;;8.63;;
12151;SDS011;6139;51.274;7.128;2024-01-06T03:24:47;9.38;;;7.75;;
12151;SDS011;6139;51.274;7.128;2024-01-06T03:25:47;10.15;;;8.20;;
12151;SDS011;6139;51.274;7.128;2024-01-06T03:26:49;10.43;;;8.17;;
12151;SDS011;6139;51.274;7.128;2024-01-06T03:27:50;9.43;;;8.07;;
12151;SDS011;6139;51.274;7.128;2024-01-06T03:28:54;8.97;;;7.87;;
12151;SDS011;6139;51.274;7.128;2024-01-06T03:29:55;10.43;;;8.90;;
12151;SDS011;6139;51.274;7.128;2024-01-06T03:30:57;10.60;;;8.90;;
12151;SDS011;6139;51.274;7.128;2024-01-06T03:31:58;10.05;;;8.13;;
12151;SDS011;6139;51.274;7.128;2024-01-06T03:33:00;10.27;;;8.80;;
12151;SDS011;6139;51.274;7.128;2024-01-06T03:34:01;9.33;;;8.03;;
12151;SDS011;6139;51.274;7.128;2024-01-06T03:35:03;10.73;;;8.68;;
12151;SDS011;6139;51.274;7.128;2024-01-06T03:36:06;10.50;;;8.70;;
12151;SDS011;6139;51.274;7.128;2024-01-06T03:37:09;10.82;;;8.98;;
12151;SDS011;6139;51.274;7.128;2024-01-06T03:38:10;10.20;;;8.75;;
12151;SDS011;6139;51.274;7.128;2024-01-06T03:39:13;10.83;;;8.67;;
12151;SDS011;6139;51.274;7.128;2024-01-06T03:40:14;11.40;;;9.00;;
12151;SDS011;6139;51.274;7.128;2024-01-06T03:41:16;10.53;;;8.70;;
12151;SDS011;6139;51.274;7.128;2024-01-06T03:42:17;12.20;;;8.87;;
12151;SDS011;6139;51.274;7.128;2024-01-06T03:43:19;11.18;;;9.20;;
12151;SDS011;6139;51.274;7.128;2024-01-06T03:44:20;11.47;;;9.63;;
12151;SDS011;6139;51.274;7.128;2024-01-06T03:45:22;13.27;;;9.83;;
12151;SDS011;6139;51.274;7.128;2024-01-06T03:46:23;11.80;;;9.02;;
12151;SDS011;6139;51.274;7.128;2024-01-06T03:47:25;12.07;;;9.63;;
12151;SDS011;6139;51.274;7.128;2024-01-06T03:48:26;14.73;;;10.27;;
12151;SDS011;6139;51.274;7.128;2024-01-06T03:49:28;12.60;;;9.60;;
12151;SDS011;6139;51.274;7.128;2024-01-06T03:50:29;12.95;;;9.60;;
12151;SDS011;6139;51.274;7.128;2024-01-06T03:51:31;13.85;;;10.80;;
12151;SDS011;6139;51.274;7.128;2024-01-06T03:52:32;12.35;;;10.82;;
12151;SDS011;6139;51.274;7.128;2024-01-06T03:53:34;13.85;;;10.55;;
12151;SDS011;6139;51.274;7.128;2024-01-06T03:54:36;14.17;;;11.13;;
12151;SDS011;6139;51.274;7.128;2024-01-06T03:55:38;13.65;;;10.48;;
12151;SDS011;6139;51.274;7.128;2024-01-06T03:56:39;12.45;;;10.20;;
12151;SDS011;6139;51.274;7.128;2024-01-06T03:57:41;14.32;;;11.70;;
12151;SDS011;6139;51.274;7.128;2024-01-06T03:58:42;15.07;;;11.40;;
12151;SDS011;6139;51.274;7.128;2024-01-06T03:59:43;17.53;;;12.93;;
12151;SDS011;6139;51.274;7.128;2024-01-06T04:00:45;15.17;;;12.53;;
12151;SDS011;6139;51.274;7.128;2024-01-06T04:01:46;16.87;;;12.13;;
12151;SDS011;6139;51.274;7.128;2024-01-06T04:02:47;14.27;;;12.03;;
12151;SDS011;6139;51.274;7.128;2024-01-06T04:03:49;16.97;;;12.20;;
12151;SDS011;6139;51.274;7.128;2024-01-06T04:04:50;20.80;;;14.03;;
12151;SDS011;6139;51.274;7.128;2024-01-06T04:05:52;20.67;;;13.80;;
12151;SDS011;6139;51.274;7.128;2024-01-06T04:06:53;20.70;;;14.05;;
12151;SDS011;6139;51.274;7.128;2024-01-06T04:07:55;20.90;;;14.50;;
12151;SDS011;6139;51.274;7.128;2024-01-06T04:08:55;20.77;;;15.77;;
12151;SDS011;6139;51.274;7.128;2024-01-06T04:09:59;20.23;;;14.80;;
12151;SDS011;6139;51.274;7.128;2024-01-06T04:11:00;21.10;;;16.40;;
12151;SDS011;6139;51.274;7.128;2024-01-06T04:12:02;18.47;;;14.90;;
12151;SDS011;6139;51.274;7.128;2024-01-06T04:13:03;19.53;;;14.80;;
12151;SDS011;6139;51.274;7.128;2024-01-06T04:14:05;19.03;;;14.40;;
12151;SDS011;6139;51.274;7.128;2024-01-06T04:15:07;20.17;;;15.33;;
12151;SDS011;6139;51.274;7.128;2024-01-06T04:16:08;19.88;;;15.63;;
12151;SDS011;6139;51.274;7.128;2024-01-06T04:17:10;20.45;;;15.25;;
12151;SDS011;6139;51.274;7.128;2024-01-06T04:18:11;22.33;;;16.30;;
12151;SDS011;6139;51.274;7.128;2024-01-06T04:19:13;21.90;;;16.53;;
12151;SDS011;6139;51.274;7.128;2024-01-06T04:20:15;23.87;;;16.97;;
12151;SDS011;6139;51.274;7.128;2024-01-06T04:21:17;24.88;;;17.38;;
12151;SDS011;6139;51.274;7.128;2024-01-06T04:22:18;23.08;;;17.17;;
12151;SDS011;6139;51.274;7.128;2024-01-06T04:23:20;22.60;;;16.00;;
12151;SDS011;6139;51.274;7.128;2024-01-06T04:24:21;23.15;;;16.67;;
12151;SDS011;6139;51.274;7.128;2024-01-06T04:25:24;21.90;;;17.47;;
12151;SDS011;6139;51.274;7.128;2024-01-06T04:26:25;21.90;;;17.05;;
12151;SDS011;6139;51.274;7.128;2024-01-06T04:27:27;23.90;;;18.13;;
12151;SDS011;6139;51.274;7.128;2024-01-06T04:28:28;23.48;;;17.50;;
12151;SDS011;6139;51.274;7.128;2024-01-06T04:29:30;24.97;;;18.10;;
12151;SDS011;6139;51.274;7.128;2024-01-06T04:30:31;24.33;;;18.07;;
12151;SDS011;6139;51.274;7.128;2024-01-06T04:31:33;26.73;;;18.23;;
12151;SDS011;6139;51.274;7.128;2024-01-06T04:32:34;25.47;;;18.57;;
12151;SDS011;6139;51.274;7.128;2024-01-06T04:33:36;25.27;;;18.87;;
12151;SDS011;6139;51.274;7.128;2024-01-06T04:34:38;24.63;;;18.20;;
12151;SDS011;6139;51.274;7.128;2024-01-06T04:35:40;26.50;;;18.23;;
12151;SDS011;6139;51.274;7.128;2024-01-06T04:36:40;23.80;;;18.10;;
12151;SDS011;6139;51.274;7.128;2024-01-06T04:37:42;25.10;;;18.67;;
12151;SDS011;6139;51.274;7.128;2024-01-06T04:38:43;23.60;;;17.63;;
12151;SDS011;6139;51.274;7.128;2024-01-06T04:39:45;24.97;;;17.80;;
12151;SDS011;6139;51.274;7.128;2024-01-06T04:40:48;26.57;;;17.60;;
12151;SDS011;6139;51.274;7.128;2024-01-06T04:41:49;25.47;;;17.27;;
12151;SDS011;6139;51.274;7.128;2024-01-06T04:42:51;24.73;;;16.83;;
12151;SDS011;6139;51.274;7.128;2024-01-06T04:43:52;25.73;;;17.00;;
12151;SDS011;6139;51.274;7.128;2024-01-06T04:44:54;24.03;;;16.40;;
12151;SDS011;6139;51.274;7.128;2024-01-06T04:45:54;24.93;;;17.03;;
12151;SDS011;6139;51.274;7.128;2024-01-06T04:46:57;27.23;;;18.07;;
12151;SDS011;6139;51.274;7.128;2024-01-06T04:47:58;27.80;;;17.73;;
12151;SDS011;6139;51.274;7.128;2024-01-06T04:49:00;29.27;;;19.07;;
12151;SDS011;6139;51.274;7.128;2024-01-06T04:50:01;28.13;;;17.67;;
12151;SDS011;6139;51.274;7.128;2024-01-06T04:51:04;32.23;;;18.23;;
12151;SDS011;6139;51.274;7.128;2024-01-06T04:52:05;25.33;;;16.47;;
12151;SDS011;6139;51.274;7.128;2024-01-06T04:53:07;26.67;;;17.60;;
12151;SDS011;6139;51.274;7.128;2024-01-06T04:54:08;26.53;;;17.40;;
12151;SDS011;6139;51.274;7.128;2024-01-06T04:55:09;28.87;;;18.20;;
12151;SDS011;6139;51.274;7.128;2024-01-06T04:56:12;26.43;;;17.27;;
12151;SDS011;6139;51.274;7.128;2024-01-06T04:57:13;28.07;;;17.30;;
12151;SDS011;6139;51.274;7.128;2024-01-06T04:58:16;30.13;;;18.87;;
12151;SDS011;6139;51.274;7.128;2024-01-06T04:59:17;25.83;;;16.47;;
12151;SDS011;6139;51.274;7.128;2024-01-06T05:00:18;20.93;;;14.40;;
12151;SDS011;6139;51.274;7.128;2024-01-06T05:01:20;20.27;;;13.97;;
12151;SDS011;6139;51.274;7.128;2024-01-06T05:02:21;20.87;;;13.47;;
12151;SDS011;6139;51.274;7.128;2024-01-06T05:03:23;19.60;;;13.40;;
12151;SDS011;6139;51.274;7.128;2024-01-06T05:04:24;17.33;;;12.00;;
12151;SDS011;6139;51.274;7.128;2024-01-06T05:05:26;19.93;;;12.73;;
12151;SDS011;6139;51.274;7.128;2024-01-06T05:06:27;17.80;;;11.90;;
12151;SDS011;6139;51.274;7.128;2024-01-06T05:07:29;15.00;;;11.23;;
12151;SDS011;6139;51.274;7.128;2024-01-06T05:08:30;17.27;;;11.70;;
12151;SDS011;6139;51.274;7.128;2024-01-06T05:09:32;17.10;;;11.77;;
12151;SDS011;6139;51.274;7.128;2024-01-06T05:10:33;16.63;;;12.03;;
12151;SDS011;6139;51.274;7.128;2024-01-06T05:11:37;15.80;;;10.90;;
12151;SDS011;6139;51.274;7.128;2024-01-06T05:12:37;16.10;;;11.67;;
12151;SDS011;6139;51.274;7.128;2024-01-06T05:13:39;17.47;;;11.47;;
12151;SDS011;6139;51.274;7.128;2024-01-06T05:14:40;14.60;;;10.67;;
12151;SDS011;6139;51.274;7.128;2024-01-06T05:15:41;16.03;;;12.00;;
12151;SDS011;6139;51.274;7.128;2024-01-06T05:16:43;15.27;;;11.17;;
12151;SDS011;6139;51.274;7.128;2024-01-06T05:17:44;14.93;;;11.47;;
12151;SDS011;6139;51.274;7.128;2024-01-06T05:18:46;16.03;;;11.57;;
12151;SDS011;6139;51.274;7.128;2024-01-06T05:19:47;15.77;;;11.23;;
12151;SDS011;6139;51.274;7.128;2024-01-06T05:20:49;15.07;;;10.87;;
12151;SDS011;6139;51.274;7.128;2024-01-06T05:21:50;15.33;;;10.97;;
12151;SDS011;6139;51.274;7.128;2024-01-06T05:22:53;15.23;;;10.73;;
12151;SDS011;6139;51.274;7.128;2024-01-06T05:23:54;15.00;;;10.77;;
12151;SDS011;6139;51.274;7.128;2024-01-06T05:24:56;16.57;;;11.60;;
12151;SDS011;6139;51.274;7.128;2024-01-06T05:25:57;15.90;;;11.07;;
12151;SDS011;6139;51.274;7.128;2024-01-06T05:27:00;16.03;;;11.57;;
12151;SDS011;6139;51.274;7.128;2024-01-06T05:28:01;16.67;;;11.30;;
12151;SDS011;6139;51.274;7.128;2024-01-06T05:29:03;16.83;;;11.83;;
12151;SDS011;6139;51.274;7.128;2024-01-06T05:30:05;14.80;;;10.77;;
12151;SDS011;6139;51.274;7.128;2024-01-06T05:31:08;14.83;;;10.83;;
12151;SDS011;6139;51.274;7.128;2024-01-06T05:32:09;13.00;;;10.13;;
12151;SDS011;6139;51.274;7.128;2024-01-06T05:33:12;14.50;;;10.50;;
12151;SDS011;6139;51.274;7.128;2024-01-06T05:34:13;15.10;;;10.70;;
12151;SDS011;6139;51.274;7.128;2024-01-06T05:35:15;16.23;;;11.30;;
12151;SDS011;6139;51.274;7.128;2024-01-06T05:36:18;13.40;;;9.80;;
12151;SDS011;6139;51.274;7.128;2024-01-06T05:37:20;14.30;;;10.43;;
12151;SDS011;6139;51.274;7.128;2024-01-06T05:38:21;14.30;;;10.70;;
12151;SDS011;6139;51.274;7.128;2024-01-06T05:39:23;14.50;;;11.07;;
12151;SDS011;6139;51.274;7.128;2024-01-06T05:40:25;14.43;;;10.53;;
12151;SDS011;6139;51.274;7.128;2024-01-06T05:41:27;14.37;;;10.50;;
12151;SDS011;6139;51.274;7.128;2024-01-06T05:42:29;14.43;;;9.83;;
12151;SDS011;6139;51.274;7.128;2024-01-06T05:43:30;13.77;;;10.50;;
12151;SDS011;6139;51.274;7.128;2024-01-06T05:44:35;14.90;;;10.77;;
12151;SDS011;6139;51.274;7.128;2024-01-06T05:45:36;15.03;;;11.27;;
12151;SDS011;6139;51.274;7.128;2024-01-06T05:46:41;14.70;;;11.10;;
12151;SDS011;6139;51.274;7.128;2024-01-06T05:47:42;14.77;;;10.50;;
12151;SDS011;6139;51.274;7.128;2024-01-06T05:48:44;15.83;;;10.20;;
12151;SDS011;6139;51.274;7.128;2024-01-06T05:49:45;15.47;;;10.43;;
12151;SDS011;6139;51.274;7.128;2024-01-06T05:50:48;14.17;;;10.27;;
12151;SDS011;6139;51.274;7.128;2024-01-06T05:51:49;14.23;;;10.00;;
12151;SDS011;6139;51.274;7.128;2024-01-06T05:52:51;13.43;;;9.50;;
12151;SDS011;6139;51.274;7.128;2024-01-06T05:53:52;11.90;;;8.67;;
12151;SDS011;6139;51.274;7.128;2024-01-06T05:54:54;13.63;;;9.03;;
12151;SDS011;6139;51.274;7.128;2024-01-06T05:55:55;14.13;;;9.97;;
12151;SDS011;6139;51.274;7.128;2024-01-06T05:56:57;14.93;;;9.60;;
12151;SDS011;6139;51.274;7.128;2024-01-06T05:58:01;16.33;;;10.07;;
12151;SDS011;6139;51.274;7.128;2024-01-06T05:59:03;13.53;;;9.30;;
12151;SDS011;6139;51.274;7.128;2024-01-06T06:00:06;16.00;;;10.50;;
12151;SDS011;6139;51.274;7.128;2024-01-06T06:01:12;14.60;;;9.63;;
12151;SDS011;6139;51.274;7.128;2024-01-06T06:02:13;13.03;;;9.30;;
12151;SDS011;6139;51.274;7.128;2024-01-06T06:03:15;14.30;;;9.77;;
12151;SDS011;6139;51.274;7.128;2024-01-06T06:04:17;13.53;;;9.77;;
12151;SDS011;6139;51.274;7.128;2024-01-06T06:05:19;14.33;;;8.70;;
12151;SDS011;6139;51.274;7.128;2024-01-06T06:06:20;14.07;;;9.37;;
12151;SDS011;6139;51.274;7.128;2024-01-06T06:07:22;11.87;;;9.07;;